createdAt,value
2019-03-08T00:01:07.092Z,15.99
2019-03-08T00:03:33.404Z,15.97
2019-03-08T00:05:59.712Z,15.96
2019-03-08T00:08:26.019Z,15.95
2019-03-08T00:10:52.337Z,15.94
2019-03-08T00:13:18.650Z,15.93
2019-03-08T00:15:44.960Z,15.92
2019-03-08T00:18:11.336Z,15.90
2019-03-08T00:20:37.635Z,15.89
2019-03-08T00:23:03.950Z,15.86
2019-03-08T00:25:30.264Z,15.85
2019-03-08T00:27:56.574Z,15.84
2019-03-08T00:30:22.886Z,15.82
2019-03-08T00:32:49.204Z,15.80
2019-03-08T00:35:15.514Z,15.79
2019-03-08T00:37:41.820Z,15.76
2019-03-08T00:40:08.127Z,15.76
2019-03-08T00:42:34.434Z,15.76
2019-03-08T00:45:00.743Z,15.74
2019-03-08T00:47:27.076Z,15.73
2019-03-08T00:49:53.386Z,15.71
2019-03-08T00:52:19.698Z,15.70
2019-03-08T00:54:46.010Z,15.68
2019-03-08T00:57:12.318Z,15.65
2019-03-08T00:59:38.632Z,15.66
2019-03-08T01:02:04.946Z,15.64
2019-03-08T01:04:31.271Z,15.62
2019-03-08T01:06:57.577Z,15.60
2019-03-08T01:09:23.891Z,15.60
2019-03-08T01:11:50.203Z,15.58
2019-03-08T01:14:16.516Z,15.56
2019-03-08T01:16:42.827Z,15.56
2019-03-08T01:19:09.139Z,15.55
2019-03-08T01:21:35.465Z,15.53
2019-03-08T01:24:01.771Z,15.52
2019-03-08T01:26:28.075Z,15.51
2019-03-08T01:28:54.432Z,15.50
2019-03-08T01:31:20.738Z,15.46
2019-03-08T01:33:47.049Z,15.48
2019-03-08T01:36:13.353Z,15.47
2019-03-08T01:38:39.664Z,15.46
2019-03-08T01:41:06.017Z,15.45
2019-03-08T01:43:32.398Z,15.44
2019-03-08T01:45:58.659Z,15.42
2019-03-08T01:48:24.964Z,15.39
2019-03-08T01:50:51.276Z,15.39
2019-03-08T01:53:17.591Z,15.38
2019-03-08T01:55:43.903Z,15.37
2019-03-08T01:58:10.250Z,15.36
2019-03-08T02:00:36.515Z,15.35
2019-03-08T02:03:02.829Z,15.36
2019-03-08T02:05:29.136Z,15.35
2019-03-08T02:07:55.448Z,15.33
2019-03-08T02:10:21.755Z,15.29
2019-03-08T02:12:48.066Z,15.31
2019-03-08T02:15:14.371Z,15.31
2019-03-08T02:17:40.718Z,15.29
2019-03-08T02:20:07.030Z,15.29
2019-03-08T02:22:33.341Z,15.28
2019-03-08T02:24:59.640Z,15.25
2019-03-08T02:27:25.943Z,15.24
2019-03-08T02:29:52.259Z,15.24
2019-03-08T02:32:18.572Z,15.21
2019-03-08T02:34:44.880Z,15.20
2019-03-08T02:37:11.187Z,15.19
2019-03-08T02:39:37.493Z,15.18
2019-03-08T02:42:03.805Z,15.17
2019-03-08T02:44:30.117Z,15.16
2019-03-08T02:46:56.422Z,15.13
2019-03-08T02:49:22.734Z,15.12
2019-03-08T02:51:49.042Z,15.10
2019-03-08T02:54:15.354Z,15.10
2019-03-08T02:56:41.663Z,15.08
2019-03-08T02:59:07.973Z,15.07
2019-03-08T03:01:34.284Z,15.04
2019-03-08T03:04:00.628Z,15.03
2019-03-08T03:06:26.947Z,15.03
2019-03-08T03:08:53.238Z,15.02
2019-03-08T03:11:19.553Z,15.01
2019-03-08T03:13:45.860Z,14.99
2019-03-08T03:16:12.169Z,14.98
2019-03-08T03:18:38.476Z,14.97
2019-03-08T03:21:04.784Z,14.95
2019-03-08T03:23:31.091Z,14.94
2019-03-08T03:25:57.429Z,14.93
2019-03-08T03:28:23.732Z,14.92
2019-03-08T03:30:50.042Z,14.90
2019-03-08T03:33:16.357Z,14.87
2019-03-08T03:35:42.658Z,14.87
2019-03-08T03:38:08.969Z,14.85
2019-03-08T03:40:35.276Z,14.84
2019-03-08T03:43:01.585Z,14.82
2019-03-08T03:45:27.895Z,14.81
2019-03-08T03:47:54.199Z,14.72
2019-03-08T03:50:20.518Z,14.80
2019-03-08T03:52:46.820Z,14.77
2019-03-08T03:55:13.136Z,14.78
2019-03-08T03:57:39.451Z,14.76
2019-03-08T04:00:05.761Z,14.74
2019-03-08T04:02:32.065Z,14.73
2019-03-08T04:04:58.376Z,14.71
2019-03-08T04:07:24.685Z,14.69
2019-03-08T04:09:51.002Z,14.68
2019-03-08T04:12:17.311Z,14.67
2019-03-08T04:14:43.641Z,14.65
2019-03-08T04:17:09.953Z,14.64
2019-03-08T04:19:36.256Z,14.64
2019-03-08T04:22:02.568Z,14.63
2019-03-08T04:24:28.874Z,14.62
2019-03-08T04:26:55.189Z,14.61
2019-03-08T04:29:21.492Z,14.60
2019-03-08T04:31:47.805Z,14.60
2019-03-08T04:34:14.124Z,14.58
2019-03-08T04:36:40.430Z,14.58
2019-03-08T04:39:06.733Z,14.56
2019-03-08T04:41:33.039Z,14.56
2019-03-08T04:43:59.348Z,14.55
2019-03-08T04:46:25.662Z,14.54
2019-03-08T04:48:51.994Z,14.53
2019-03-08T04:51:18.305Z,14.52
2019-03-08T04:53:44.613Z,14.52
2019-03-08T04:56:10.971Z,14.51
2019-03-08T04:58:37.280Z,14.51
2019-03-08T05:01:03.585Z,14.52
2019-03-08T05:03:29.894Z,14.51
2019-03-08T05:05:56.201Z,14.51
2019-03-08T05:08:22.528Z,14.50
2019-03-08T05:10:48.811Z,14.52
2019-03-08T05:13:15.289Z,14.52
2019-03-08T05:15:41.604Z,14.55
2019-03-08T05:18:07.926Z,14.57
2019-03-08T05:20:34.234Z,14.61
2019-03-08T05:23:00.545Z,14.62
2019-03-08T05:25:26.852Z,14.64
2019-03-08T05:27:53.159Z,14.65
2019-03-08T05:30:19.468Z,14.68
2019-03-08T05:32:45.779Z,14.70
2019-03-08T05:35:12.108Z,14.72
2019-03-08T05:37:38.464Z,14.79
2019-03-08T05:40:04.774Z,14.86
2019-03-08T05:42:31.075Z,14.93
2019-03-08T05:44:57.386Z,15.01
2019-03-08T05:47:23.698Z,15.08
2019-03-08T05:49:50.005Z,15.19
2019-03-08T05:52:16.317Z,15.32
2019-03-08T05:54:42.627Z,15.45
2019-03-08T05:57:08.932Z,15.62
2019-03-08T05:59:35.248Z,15.76
2019-03-08T06:02:01.552Z,15.84
2019-03-08T06:04:27.869Z,15.46
2019-03-08T06:06:54.174Z,15.08
2019-03-08T06:09:20.522Z,14.86
2019-03-08T06:11:46.962Z,14.61
2019-03-08T06:14:13.294Z,14.50
2019-03-08T06:16:39.678Z,14.69
2019-03-08T06:19:05.989Z,14.73
2019-03-08T06:21:32.321Z,14.79
2019-03-08T06:23:58.615Z,14.72
2019-03-08T06:26:24.931Z,14.77
2019-03-08T06:28:51.252Z,14.87
2019-03-08T06:31:17.577Z,14.98
2019-03-08T06:33:43.884Z,15.11
2019-03-08T06:36:10.197Z,15.28
2019-03-08T06:38:36.517Z,15.38
2019-03-08T06:41:02.826Z,15.47
2019-03-08T06:43:29.136Z,15.63
2019-03-08T06:45:55.720Z,15.76
2019-03-08T06:48:22.078Z,15.94
2019-03-08T06:50:48.385Z,16.17
2019-03-08T06:53:14.700Z,16.40
2019-03-08T06:55:41.008Z,16.45
2019-03-08T06:58:07.324Z,16.47
2019-03-08T07:00:33.644Z,16.60
2019-03-08T07:02:59.986Z,16.81
2019-03-08T07:05:26.275Z,16.93
2019-03-08T07:07:52.581Z,17.05
2019-03-08T07:10:18.920Z,17.23
2019-03-08T07:12:45.222Z,17.40
2019-03-08T07:15:11.536Z,17.57
2019-03-08T07:17:37.846Z,17.76
2019-03-08T07:20:04.183Z,17.57
2019-03-08T07:22:30.501Z,17.71
2019-03-08T07:24:56.806Z,17.91
2019-03-08T07:27:23.157Z,18.10
2019-03-08T07:29:49.432Z,18.34
2019-03-08T07:32:18.828Z,18.44
2019-03-08T07:34:45.140Z,18.55
2019-03-08T07:37:11.460Z,18.62
2019-03-08T07:39:37.775Z,18.89
2019-03-08T07:42:04.086Z,19.14
2019-03-08T07:44:30.404Z,19.35
2019-03-08T07:46:56.712Z,19.20
2019-03-08T07:49:23.074Z,19.27
2019-03-08T07:51:49.537Z,19.41
2019-03-08T07:54:15.913Z,19.51
2019-03-08T07:56:42.223Z,19.68
2019-03-08T07:59:08.537Z,19.90
2019-03-08T08:01:34.906Z,19.97
2019-03-08T08:04:01.220Z,19.65
2019-03-08T08:06:27.527Z,19.38
2019-03-08T08:08:53.833Z,19.36
2019-03-08T08:11:20.147Z,19.59
2019-03-08T08:13:46.459Z,19.69
2019-03-08T08:16:12.775Z,19.72
2019-03-08T08:18:39.093Z,19.93
2019-03-08T08:21:05.399Z,20.16
2019-03-08T08:23:35.386Z,20.34
2019-03-08T08:25:58.018Z,20.57
2019-03-08T08:28:24.328Z,20.80
2019-03-08T08:30:50.713Z,21.01
2019-03-08T08:33:17.072Z,21.12
2019-03-08T08:35:43.378Z,21.22
2019-03-08T08:38:09.691Z,21.33
2019-03-08T08:40:35.998Z,21.56
2019-03-08T08:43:02.309Z,21.88
2019-03-08T08:45:28.677Z,22.22
2019-03-08T08:47:54.961Z,22.46
2019-03-08T08:50:23.159Z,22.61
2019-03-08T08:52:49.465Z,22.57
2019-03-08T08:55:15.802Z,22.72
2019-03-08T08:57:42.250Z,22.86
2019-03-08T09:00:08.557Z,23.03
2019-03-08T09:02:34.871Z,23.10
2019-03-08T09:05:01.685Z,23.17
2019-03-08T09:07:27.510Z,23.23
2019-03-08T09:09:53.821Z,23.42
2019-03-08T09:12:20.127Z,23.50
2019-03-08T09:14:47.146Z,23.55
2019-03-08T09:17:12.759Z,23.61
2019-03-08T09:19:39.085Z,23.80
2019-03-08T09:22:05.388Z,23.85
2019-03-08T09:24:31.699Z,23.94
2019-03-08T09:26:58.003Z,23.89
2019-03-08T09:29:24.315Z,23.95
2019-03-08T09:31:50.628Z,24.17
2019-03-08T09:34:16.941Z,24.42
2019-03-08T09:36:43.321Z,24.67
2019-03-08T09:39:09.636Z,24.78
2019-03-08T09:41:35.984Z,24.92
2019-03-08T09:44:02.265Z,24.95
2019-03-08T09:46:28.585Z,24.86
2019-03-08T09:48:54.958Z,24.87
2019-03-08T09:51:21.278Z,24.81
2019-03-08T09:53:47.581Z,24.98
2019-03-08T09:56:13.906Z,25.19
2019-03-08T09:58:40.215Z,25.30
2019-03-08T10:01:06.543Z,25.26
2019-03-08T10:03:32.857Z,25.01
2019-03-08T10:05:59.176Z,24.72
2019-03-08T10:08:25.485Z,24.39
2019-03-08T10:10:51.812Z,24.10
2019-03-08T10:13:18.176Z,23.81
2019-03-08T10:15:45.109Z,23.55
2019-03-08T10:18:12.408Z,23.68
2019-03-08T10:20:40.298Z,23.92
2019-03-08T10:23:09.034Z,24.17
2019-03-08T10:25:35.340Z,24.42
2019-03-08T10:28:01.660Z,24.53
2019-03-08T10:30:27.990Z,24.59
2019-03-08T10:32:54.290Z,24.67
2019-03-08T10:35:23.745Z,24.78
2019-03-08T10:37:46.906Z,24.99
2019-03-08T10:40:13.218Z,25.14
2019-03-08T10:42:39.533Z,25.34
2019-03-08T10:45:05.846Z,25.47
2019-03-08T10:47:32.181Z,25.58
2019-03-08T10:49:58.493Z,25.64
2019-03-08T10:52:24.873Z,25.53
2019-03-08T10:54:51.168Z,25.61
2019-03-08T10:57:17.478Z,25.59
2019-03-08T10:59:43.793Z,25.63
2019-03-08T11:02:10.121Z,25.71
2019-03-08T11:04:36.625Z,25.78
2019-03-08T11:07:04.041Z,25.85
2019-03-08T11:09:29.605Z,25.96
2019-03-08T11:11:55.905Z,26.00
2019-03-08T11:14:22.216Z,25.82
2019-03-08T11:16:48.534Z,25.47
2019-03-08T11:19:14.920Z,25.16
2019-03-08T11:21:41.269Z,25.15
2019-03-08T11:24:07.560Z,25.12
2019-03-08T11:26:33.947Z,24.92
2019-03-08T11:29:00.269Z,24.59
2019-03-08T11:31:26.589Z,24.57
2019-03-08T11:33:52.935Z,24.62
2019-03-08T11:36:19.259Z,24.60
2019-03-08T11:38:45.564Z,24.47
2019-03-08T11:41:14.455Z,24.31
2019-03-08T11:43:38.178Z,24.36
2019-03-08T11:46:04.529Z,24.34
2019-03-08T11:48:30.809Z,24.40
2019-03-08T11:50:57.116Z,24.57
2019-03-08T11:53:23.435Z,24.66
2019-03-08T11:55:49.771Z,24.66
2019-03-08T11:58:16.092Z,24.71
2019-03-08T12:00:42.420Z,24.69
2019-03-08T12:03:08.721Z,24.72
2019-03-08T12:05:35.030Z,24.73
2019-03-08T12:08:01.370Z,24.79
2019-03-08T12:10:27.665Z,24.81
2019-03-08T12:12:54.005Z,24.81
2019-03-08T12:15:20.319Z,24.77
2019-03-08T12:17:46.626Z,24.76
2019-03-08T12:20:12.944Z,24.78
2019-03-08T12:22:39.257Z,24.76
2019-03-08T12:25:05.566Z,24.70
2019-03-08T12:27:31.877Z,24.75
2019-03-08T12:29:58.188Z,24.80
2019-03-08T12:32:24.497Z,24.86
2019-03-08T12:34:50.808Z,24.88
2019-03-08T12:37:17.117Z,24.83
2019-03-08T12:39:43.430Z,24.79
2019-03-08T12:42:09.748Z,24.77
2019-03-08T12:44:36.060Z,24.79
2019-03-08T12:47:02.602Z,24.83
2019-03-08T12:49:28.922Z,24.82
2019-03-08T12:51:55.225Z,24.81
2019-03-08T12:54:21.535Z,24.78
2019-03-08T12:56:47.845Z,24.73
2019-03-08T12:59:14.168Z,24.67
2019-03-08T13:01:40.486Z,24.61
2019-03-08T13:04:06.793Z,24.54
2019-03-08T13:06:33.101Z,24.49
2019-03-08T13:08:59.435Z,24.37
2019-03-08T13:11:32.919Z,24.29
2019-03-08T13:13:52.067Z,24.23
2019-03-08T13:16:18.425Z,24.23
2019-03-08T13:18:44.734Z,24.22
2019-03-08T13:21:11.066Z,24.24
2019-03-08T13:23:37.376Z,24.26
2019-03-08T13:26:03.718Z,24.23
2019-03-08T13:28:30.029Z,24.20
2019-03-08T13:30:56.332Z,24.15
2019-03-08T13:33:22.682Z,24.15
2019-03-08T13:35:48.963Z,24.19
2019-03-08T13:38:15.293Z,24.24
2019-03-08T13:40:41.614Z,24.24
2019-03-08T13:43:07.935Z,24.21
2019-03-08T13:45:34.252Z,24.25
2019-03-08T13:48:00.571Z,24.24
2019-03-08T13:50:26.882Z,24.20
2019-03-08T13:52:53.194Z,24.13
2019-03-08T13:55:19.506Z,24.11
2019-03-08T13:57:45.812Z,24.10
2019-03-08T14:00:12.130Z,24.09
2019-03-08T14:02:38.463Z,24.10
2019-03-08T14:05:04.775Z,24.11
2019-03-08T14:07:31.087Z,24.07
2019-03-08T14:09:57.398Z,23.99
2019-03-08T14:12:23.754Z,23.92
2019-03-08T14:14:50.067Z,23.84
2019-03-08T14:17:16.374Z,23.76
2019-03-08T14:19:42.689Z,23.71
2019-03-08T14:22:09.005Z,23.68
2019-03-08T14:24:35.339Z,23.64
2019-03-08T14:27:01.643Z,23.61
2019-03-08T14:29:27.953Z,23.58
2019-03-08T14:31:54.288Z,23.55
2019-03-08T14:34:20.600Z,23.54
2019-03-08T14:36:46.920Z,23.51
2019-03-08T14:39:13.266Z,23.50
2019-03-08T14:41:39.572Z,23.47
2019-03-08T14:44:05.881Z,23.47
2019-03-08T14:46:32.200Z,23.43
2019-03-08T14:48:58.515Z,23.41
2019-03-08T14:51:24.824Z,23.35
2019-03-08T14:53:51.136Z,23.32
2019-03-08T14:56:17.458Z,23.26
2019-03-08T14:58:43.769Z,23.21
2019-03-08T15:01:10.077Z,23.19
2019-03-08T15:03:43.318Z,23.22
2019-03-08T15:06:02.701Z,23.29
2019-03-08T15:08:29.022Z,23.22
2019-03-08T15:10:55.330Z,23.15
2019-03-08T15:13:24.007Z,23.21
2019-03-08T15:15:47.963Z,23.11
2019-03-08T15:18:14.747Z,22.98
2019-03-08T15:20:40.599Z,22.94
2019-03-08T15:23:06.922Z,22.91
2019-03-08T15:25:33.217Z,22.92
2019-03-08T15:27:59.533Z,23.04
2019-03-08T15:30:25.844Z,23.11
2019-03-08T15:32:52.151Z,23.18
2019-03-08T15:35:18.464Z,23.22
2019-03-08T15:37:44.858Z,23.25
2019-03-08T15:40:11.119Z,23.26
2019-03-08T15:42:38.077Z,23.23
2019-03-08T15:45:05.809Z,23.22
2019-03-08T15:47:32.482Z,23.23
2019-03-08T15:49:56.367Z,23.22
2019-03-08T15:52:22.682Z,23.17
2019-03-08T15:54:48.988Z,23.13
2019-03-08T15:57:15.298Z,23.14
2019-03-08T15:59:41.609Z,23.14
2019-03-08T16:02:07.917Z,23.13
2019-03-08T16:04:34.228Z,23.07
2019-03-08T16:07:00.531Z,22.99
2019-03-08T16:09:26.871Z,22.99
2019-03-08T16:11:53.188Z,22.96
2019-03-08T16:14:19.520Z,22.94
2019-03-08T16:16:45.828Z,22.87
2019-03-08T16:19:12.140Z,22.81
2019-03-08T16:21:38.455Z,22.80
2019-03-08T16:24:04.770Z,22.73
2019-03-08T16:26:31.101Z,22.62
2019-03-08T16:28:57.412Z,22.54
2019-03-08T16:31:25.615Z,22.49
2019-03-08T16:33:50.021Z,22.38
2019-03-08T16:36:16.328Z,22.30
2019-03-08T16:38:42.635Z,22.32
2019-03-08T16:41:08.946Z,22.32
2019-03-08T16:43:35.253Z,22.29
2019-03-08T16:46:01.584Z,22.29
2019-03-08T16:48:27.916Z,22.28
2019-03-08T16:50:56.122Z,22.21
2019-03-08T16:53:20.506Z,22.16
2019-03-08T16:55:46.837Z,22.23
2019-03-08T16:58:13.238Z,22.23
2019-03-08T17:00:40.463Z,22.20
2019-03-08T17:03:05.855Z,22.15
2019-03-08T17:05:33.402Z,22.12
2019-03-08T17:07:59.773Z,22.08
2019-03-08T17:10:26.082Z,22.03
2019-03-08T17:12:52.555Z,22.01
2019-03-08T17:15:18.789Z,21.96
2019-03-08T17:17:45.104Z,21.92
2019-03-08T17:20:11.415Z,21.92
2019-03-08T17:22:37.722Z,22.04
2019-03-08T17:25:04.037Z,22.06
2019-03-08T17:27:30.348Z,22.01
2019-03-08T17:29:56.654Z,21.94
2019-03-08T17:32:22.967Z,21.88
2019-03-08T17:34:49.277Z,21.83
2019-03-08T17:37:15.583Z,21.70
2019-03-08T17:39:41.897Z,21.75
2019-03-08T17:42:08.212Z,21.72
2019-03-08T17:44:34.544Z,21.70
2019-03-08T17:47:00.851Z,21.66
2019-03-08T17:49:27.161Z,21.64
2019-03-08T17:51:53.553Z,21.61
2019-03-08T17:54:19.849Z,21.58
2019-03-08T17:56:46.120Z,21.56
2019-03-08T17:59:12.433Z,21.54
2019-03-08T18:01:38.746Z,21.51
2019-03-08T18:04:05.072Z,21.49
2019-03-08T18:06:31.377Z,21.46
2019-03-08T18:08:57.732Z,21.44
2019-03-08T18:11:24.060Z,21.42
2019-03-08T18:13:50.610Z,21.40
2019-03-08T18:16:17.024Z,21.38
2019-03-08T18:18:43.332Z,21.36
2019-03-08T18:21:09.682Z,21.33
2019-03-08T18:23:35.983Z,21.29
2019-03-08T18:26:02.334Z,21.29
2019-03-08T18:28:28.636Z,21.27
2019-03-08T18:30:54.952Z,21.24
2019-03-08T18:33:21.265Z,21.23
2019-03-08T18:35:47.602Z,21.21
2019-03-08T18:38:13.930Z,21.19
2019-03-08T18:40:40.239Z,21.17
2019-03-08T18:43:06.564Z,21.16
2019-03-08T18:45:32.879Z,21.14
2019-03-08T18:47:59.183Z,21.13
2019-03-08T18:50:25.496Z,21.09
2019-03-08T18:52:51.828Z,21.08
2019-03-08T18:55:18.119Z,21.06
2019-03-08T18:57:44.441Z,21.01
2019-03-08T19:00:10.752Z,21.02
2019-03-08T19:02:37.085Z,20.99
2019-03-08T19:05:03.400Z,20.97
2019-03-08T19:07:29.712Z,20.95
2019-03-08T19:09:56.038Z,20.93
2019-03-08T19:12:22.357Z,20.90
2019-03-08T19:14:48.666Z,20.87
2019-03-08T19:17:14.978Z,20.86
2019-03-08T19:19:41.296Z,20.83
2019-03-08T19:22:07.605Z,20.81
2019-03-08T19:24:33.911Z,20.79
2019-03-08T19:27:00.223Z,20.77
2019-03-08T19:29:26.533Z,20.74
2019-03-08T19:31:52.841Z,20.73
2019-03-08T19:34:19.156Z,20.70
2019-03-08T19:36:45.464Z,20.67
2019-03-08T19:39:11.781Z,20.65
2019-03-08T19:41:38.085Z,20.62
2019-03-08T19:44:04.398Z,20.60
2019-03-08T19:46:30.703Z,20.57
2019-03-08T19:48:57.009Z,20.54
2019-03-08T19:51:23.326Z,20.52
2019-03-08T19:53:49.653Z,20.51
2019-03-08T19:56:15.962Z,20.48
2019-03-08T19:58:42.277Z,20.46
2019-03-08T20:01:08.584Z,20.43
2019-03-08T20:03:34.922Z,20.40
2019-03-08T20:06:01.192Z,20.34
2019-03-08T20:08:27.500Z,20.41
2019-03-08T20:10:53.834Z,20.42
2019-03-08T20:13:20.134Z,20.40
2019-03-08T20:15:46.447Z,20.37
2019-03-08T20:18:12.760Z,20.31
2019-03-08T20:20:39.099Z,20.29
2019-03-08T20:23:05.462Z,20.24
2019-03-08T20:25:31.769Z,20.22
2019-03-08T20:27:58.077Z,20.19
2019-03-08T20:30:24.389Z,20.17
2019-03-08T20:32:50.701Z,20.16
2019-03-08T20:35:17.026Z,20.18
2019-03-08T20:37:43.363Z,20.16
2019-03-08T20:40:09.663Z,20.11
2019-03-08T20:42:35.981Z,20.08
2019-03-08T20:45:02.309Z,20.05
2019-03-08T20:47:28.641Z,20.02
2019-03-08T20:49:54.949Z,20.03
2019-03-08T20:52:21.252Z,20.03
2019-03-08T20:54:47.577Z,19.99
2019-03-08T20:57:13.887Z,19.93
2019-03-08T20:59:40.200Z,19.90
2019-03-08T21:02:06.505Z,19.87
2019-03-08T21:04:32.816Z,19.85
2019-03-08T21:06:59.134Z,19.83
2019-03-08T21:09:25.441Z,19.80
2019-03-08T21:11:51.757Z,19.77
2019-03-08T21:14:18.107Z,19.74
2019-03-08T21:16:44.398Z,19.72
2019-03-08T21:19:10.784Z,19.69
2019-03-08T21:21:37.066Z,19.67
2019-03-08T21:24:03.379Z,19.65
2019-03-08T21:26:29.733Z,19.62
2019-03-08T21:28:56.018Z,19.60
2019-03-08T21:31:22.371Z,19.57
2019-03-08T21:33:48.631Z,19.55
2019-03-08T21:36:14.945Z,19.53
2019-03-08T21:38:41.253Z,19.49
2019-03-08T21:41:07.572Z,19.46
2019-03-08T21:43:33.890Z,19.45
2019-03-08T21:46:00.207Z,19.43
2019-03-08T21:48:26.524Z,19.38
2019-03-08T21:50:52.843Z,19.37
2019-03-08T21:53:19.168Z,19.35
2019-03-08T21:55:45.485Z,19.31
2019-03-08T21:58:11.814Z,19.30
2019-03-08T22:00:38.148Z,19.27
2019-03-08T22:03:04.460Z,19.23
2019-03-08T22:05:30.785Z,19.24
2019-03-08T22:07:57.093Z,19.20
2019-03-08T22:10:23.405Z,19.20
2019-03-08T22:12:49.712Z,19.15
2019-03-08T22:15:16.045Z,19.15
2019-03-08T22:17:42.360Z,19.13
2019-03-08T22:20:08.694Z,19.12
2019-03-08T22:22:35.008Z,19.09
2019-03-08T22:25:01.320Z,19.07
2019-03-08T22:27:27.637Z,19.05
2019-03-08T22:29:53.950Z,19.03
2019-03-08T22:32:20.261Z,19.00
2019-03-08T22:34:46.570Z,18.99
2019-03-08T22:37:12.891Z,18.96
2019-03-08T22:39:39.251Z,18.95
2019-03-08T22:42:05.556Z,18.92
2019-03-08T22:44:31.873Z,18.91
2019-03-08T22:46:58.251Z,18.88
2019-03-08T22:49:24.561Z,18.88
2019-03-08T22:51:50.871Z,18.85
2019-03-08T22:54:17.191Z,18.83
2019-03-08T22:56:43.501Z,18.81
2019-03-08T22:59:09.854Z,18.79
2019-03-08T23:01:36.169Z,18.77
2019-03-08T23:04:02.484Z,18.76
2019-03-08T23:06:28.801Z,18.73
2019-03-08T23:08:55.108Z,18.71
2019-03-08T23:11:21.422Z,18.69
2019-03-08T23:13:47.733Z,18.69
2019-03-08T23:16:14.039Z,18.67
2019-03-08T23:18:40.347Z,18.65
2019-03-08T23:21:06.715Z,18.63
2019-03-08T23:23:33.040Z,18.63
2019-03-08T23:25:59.333Z,18.61
2019-03-08T23:28:27.568Z,18.59
2019-03-08T23:30:53.881Z,18.57
2019-03-08T23:33:20.206Z,18.55
2019-03-08T23:35:46.512Z,18.54
2019-03-08T23:38:12.849Z,18.51
2019-03-08T23:40:39.160Z,18.46
2019-03-08T23:43:05.465Z,18.47
2019-03-08T23:45:31.794Z,18.44
2019-03-08T23:47:58.109Z,18.41
2019-03-08T23:50:24.416Z,18.41
2019-03-08T23:52:50.759Z,18.38
2019-03-08T23:55:17.052Z,18.38
2019-03-08T23:57:43.357Z,18.35
